Time;durP1;ratioP1;P1;durP2;ratioP2;P2;SDS_P1;SDS_P2;PMS_P1;PMS_P2;Temp;Humidity;BMP_temperature;BMP_pressure;BME280_temperature;BME280_humidity;BME280_pressure;Samples;Min_cycle;Max_cycle;Signal;HPM_P1;HPM_P2
2021/11/30 00:01:56;;;;;;;14.82;9.77;;;;;;;1.95;99.10;100121.34;4961033;28;20556;-84
2021/11/30 00:04:23;;;;;;;15.85;10.48;;;;;;;2.01;98.93;100117.97;4951396;28;20058;-85
2021/11/30 00:06:51;;;;;;;19.48;11.45;;;;;;;2.04;98.52;100110.31;4949898;28;20726;-86
2021/11/30 00:12:17;;;;;;;19.52;12.02;;;;;;;2.10;99.28;100106.13;4951512;28;20027;-85
2021/11/30 00:14:48;;;;;;;17.10;12.23;;;;;;;2.13;98.84;100113.91;4933141;28;20395;-85
2021/11/30 00:17:16;;;;;;;19.58;12.52;;;;;;;2.15;98.77;100096.72;4951515;28;20042;-87
2021/11/30 00:19:44;;;;;;;21.58;14.07;;;;;;;2.19;98.92;100102.81;4944710;28;20049;-86
2021/11/30 00:22:14;;;;;;;22.65;13.65;;;;;;;2.21;98.94;100097.69;4941936;28;20534;-86
2021/11/30 00:24:44;;;;;;;24.10;13.50;;;;;;;2.23;99.17;100095.97;4945274;28;20160;-85
2021/11/30 00:27:14;;;;;;;18.92;12.38;;;;;;;2.25;98.59;100096.88;4946543;28;22743;-85
2021/11/30 00:29:41;;;;;;;21.83;13.85;;;;;;;2.27;99.16;100090.03;4946411;28;20047;-87
2021/11/30 00:32:09;;;;;;;21.05;13.10;;;;;;;2.30;98.89;100083.19;4948384;28;20438;-88
2021/11/30 00:34:37;;;;;;;25.52;14.02;;;;;;;2.30;99.15;100082.31;4929605;28;20062;-86
2021/11/30 00:37:04;;;;;;;20.60;13.68;;;;;;;2.33;99.18;100071.16;4946437;28;20517;-85
2021/11/30 00:39:34;;;;;;;23.40;14.18;;;;;;;2.37;99.12;100078.13;4930814;28;21619;-87
2021/11/30 00:42:02;;;;;;;20.42;13.35;;;;;;;2.37;99.49;100083.28;4946557;28;20489;-85
2021/11/30 00:44:33;;;;;;;22.92;13.75;;;;;;;2.39;99.50;100077.28;4949529;28;20418;-85
2021/11/30 00:47:00;;;;;;;21.67;14.38;;;;;;;2.45;99.40;100068.75;4928687;28;20043;-87
2021/11/30 00:49:27;;;;;;;22.20;14.15;;;;;;;2.44;100.00;100067.03;4942882;28;20038;-85
2021/11/30 00:51:58;;;;;;;27.38;15.55;;;;;;;2.44;100.00;100061.88;4943062;28;20457;-86
2021/11/30 00:54:28;;;;;;;24.48;15.48;;;;;;;2.45;100.00;100053.25;4944993;28;20051;-84
2021/11/30 00:56:56;;;;;;;25.58;16.23;;;;;;;2.43;100.00;100053.22;4939670;28;20140;-85
2021/11/30 00:59:27;;;;;;;25.60;15.93;;;;;;;2.41;100.00;100051.47;4923623;28;20049;-85
2021/11/30 01:01:54;;;;;;;22.73;14.77;;;;;;;2.40;100.00;100047.16;4925290;28;20125;-86
2021/11/30 01:04:20;;;;;;;22.27;13.48;;;;;;;2.42;100.00;100045.47;4923613;28;20065;-86
2021/11/30 01:06:47;;;;;;;24.05;14.82;;;;;;;2.45;100.00;100043.81;4925991;28;20066;-85
2021/11/30 01:09:14;;;;;;;23.45;14.88;;;;;;;2.46;100.00;100036.91;4929432;28;20948;-85
2021/11/30 01:11:43;;;;;;;25.27;15.13;;;;;;;2.45;100.00;100032.59;4924257;28;20051;-86
2021/11/30 01:14:10;;;;;;;27.50;14.48;;;;;;;2.43;100.00;100023.97;4943363;28;20469;-86
2021/11/30 01:16:44;;;;;;;27.17;16.23;;;;;;;2.44;100.00;100031.72;4939244;28;20054;-86
2021/11/30 01:19:10;;;;;;;23.25;14.50;;;;;;;2.48;100.00;100025.75;4930868;28;20509;-86
2021/11/30 01:21:38;;;;;;;24.08;15.38;;;;;;;2.48;100.00;100038.66;4925986;28;20581;-86
2021/11/30 01:24:07;;;;;;;21.90;13.57;;;;;;;2.52;100.00;100042.16;4938070;28;20046;-85
2021/11/30 01:26:34;;;;;;;26.25;14.35;;;;;;;2.56;100.00;100031.03;4945771;28;20461;-86
2021/11/30 01:29:02;;;;;;;22.25;12.25;;;;;;;2.63;100.00;100022.53;4939366;28;21017;-86
2021/11/30 01:31:28;;;;;;;20.00;12.00;;;;;;;2.67;100.00;100013.06;4940089;28;20161;-86
2021/11/30 01:33:55;;;;;;;18.90;12.70;;;;;;;2.74;100.00;99998.53;4943267;28;20051;-86
2021/11/30 01:36:24;;;;;;;17.77;12.57;;;;;;;2.78;100.00;100005.47;4953591;28;20890;-85
2021/11/30 01:38:50;;;;;;;20.63;12.55;;;;;;;2.77;100.00;100004.59;4927725;28;20046;-86
2021/11/30 01:41:18;;;;;;;18.70;10.27;;;;;;;2.79;100.00;99984.81;4934989;28;20133;-85
2021/11/30 01:43:45;;;;;;;16.70;11.73;;;;;;;2.83;99.84;99998.66;4941373;28;20066;-84
2021/11/30 01:46:26;;;;;;;16.80;11.32;;;;;;;2.87;99.79;99976.25;4941025;28;20158;-85
2021/11/30 01:49:21;;;;;;;16.13;11.13;;;;;;;2.90;99.66;99979.75;4936436;28;20055;-85
2021/11/30 01:51:47;;;;;;;18.58;10.27;;;;;;;2.89;99.73;99972.84;4941372;28;20047;-85
2021/11/30 01:54:14;;;;;;;12.68;9.75;;;;;;;2.91;99.01;99963.41;4922405;28;20422;-83
2021/11/30 01:56:43;;;;;;;15.18;10.68;;;;;;;2.91;99.09;99955.66;4938494;28;20222;-85
2021/11/30 01:59:10;;;;;;;16.35;9.77;;;;;;;2.93;98.84;99961.72;4952460;28;20453;-86
2021/11/30 02:01:59;;;;;;;16.98;8.95;;;;;;;2.91;98.73;99953.06;4938877;28;20849;-86
2021/11/30 02:04:26;;;;;;;14.65;9.07;;;;;;;2.96;98.29;99948.81;4955857;28;20050;-85
2021/11/30 02:06:53;;;;;;;12.07;9.50;;;;;;;2.98;97.39;99949.66;4937752;28;20047;-86
2021/11/30 02:09:19;;;;;;;11.95;8.32;;;;;;;3.05;96.48;99939.41;4926060;28;20061;-86
2021/11/30 02:11:46;;;;;;;11.82;7.72;;;;;;;3.05;97.19;99942.88;4937024;28;20441;-86
2021/11/30 02:14:13;;;;;;;13.35;8.45;;;;;;;3.03;98.58;99943.72;4942642;28;20213;-86
2021/11/30 02:16:40;;;;;;;6.78;5.72;;;;;;;2.97;99.81;99935.03;4923689;28;20803;-86
2021/11/30 02:19:07;;;;;;;8.23;6.53;;;;;;;2.87;100.00;99928.03;4935930;28;20051;-84
2021/11/30 02:21:38;;;;;;;10.80;7.78;;;;;;;2.83;100.00;99938.31;4925317;28;20059;-84
2021/11/30 02:24:06;;;;;;;9.07;6.10;;;;;;;2.78;100.00;99926.22;4942455;28;20387;-84
2021/11/30 02:26:35;;;;;;;6.28;5.68;;;;;;;2.76;100.00;99938.22;4945859;28;20054;-84
2021/11/30 02:29:05;;;;;;;9.20;6.30;;;;;;;2.72;100.00;99927.84;4927305;28;20057;-84
2021/11/30 02:31:37;;;;;;;8.85;5.97;;;;;;;2.70;100.00;99921.78;4955099;28;20052;-86
2021/11/30 02:34:05;;;;;;;7.80;5.47;;;;;;;2.68;100.00;99923.50;4944500;28;20054;-85
2021/11/30 02:36:48;;;;;;;8.38;4.68;;;;;;;2.66;100.00;99915.75;4957517;28;20051;-85
2021/11/30 02:39:22;;;;;;;6.50;5.38;;;;;;;2.64;100.00;99900.19;4945189;28;20395;-86
2021/11/30 02:41:51;;;;;;;5.95;4.45;;;;;;;2.64;100.00;99894.19;4943685;28;20079;-86
2021/11/30 02:44:21;;;;;;;7.00;4.72;;;;;;;2.65;100.00;99890.75;4939456;28;21894;-86
2021/11/30 02:46:54;;;;;;;6.15;3.90;;;;;;;2.63;100.00;99875.22;4946348;28;20149;-86
2021/11/30 02:49:26;;;;;;;5.03;4.53;;;;;;;2.63;100.00;99871.75;4957405;28;20058;-86
2021/11/30 02:52:02;;;;;;;5.50;4.97;;;;;;;2.63;100.00;99867.47;4959032;28;20043;-86
2021/11/30 02:54:28;;;;;;;7.03;4.28;;;;;;;2.65;100.00;99852.84;4946954;28;20046;-86
2021/11/30 02:56:59;;;;;;;5.78;4.15;;;;;;;2.68;100.00;99853.75;4923917;28;22456;-86
2021/11/30 02:59:29;;;;;;;4.70;4.30;;;;;;;2.64;100.00;99851.09;4946207;28;20057;-87
2021/11/30 03:02:18;;;;;;;6.00;3.53;;;;;;;2.64;99.89;99837.31;4935002;28;20043;-86
2021/11/30 03:04:49;;;;;;;4.68;4.28;;;;;;;2.62;100.00;99832.16;4945539;28;20046;-86
2021/11/30 03:07:26;;;;;;;5.25;3.75;;;;;;;2.57;100.00;99831.22;4941161;28;20054;-86
2021/11/30 03:09:57;;;;;;;6.35;3.35;;;;;;;2.53;99.05;99833.75;4929375;28;20046;-86
2021/11/30 03:12:26;;;;;;;4.40;3.10;;;;;;;2.45;99.12;99825.91;4945145;28;20054;-85
2021/11/30 03:14:53;;;;;;;5.10;3.40;;;;;;;2.41;100.00;99814.72;4925577;28;20050;-85
2021/11/30 03:17:22;;;;;;;4.50;3.38;;;;;;;2.38;100.00;99816.38;4941304;28;20058;-85
2021/11/30 03:19:49;;;;;;;3.78;3.47;;;;;;;2.31;100.00;99812.88;4937088;28;20059;-86
2021/11/30 03:22:18;;;;;;;3.67;3.38;;;;;;;2.26;100.00;99812.81;4924905;28;20058;-86
2021/11/30 03:24:45;;;;;;;5.43;3.42;;;;;;;2.23;100.00;99802.47;4929633;28;20842;-85
2021/11/30 03:27:11;;;;;;;3.55;3.20;;;;;;;2.24;100.00;99801.63;4939989;28;20529;-85
2021/11/30 03:29:38;;;;;;;4.60;3.25;;;;;;;2.24;99.90;99801.63;4928433;28;21842;-86
2021/11/30 03:32:09;;;;;;;5.25;3.03;;;;;;;2.25;99.49;99786.97;4936801;28;20039;-86
2021/11/30 03:34:36;;;;;;;2.75;2.55;;;;;;;2.20;99.61;99786.91;4959343;28;20069;-86
2021/11/30 03:37:06;;;;;;;3.25;2.95;;;;;;;2.18;99.83;99783.47;4939698;28;20074;-86
2021/11/30 03:39:34;;;;;;;2.78;2.10;;;;;;;2.14;99.81;99787.72;4923850;28;20054;-86
2021/11/30 03:42:01;;;;;;;2.83;2.20;;;;;;;2.08;100.00;99771.31;4924900;28;20054;-86
2021/11/30 03:44:30;;;;;;;4.80;3.20;;;;;;;2.04;99.78;99760.06;4938579;28;20082;-86
2021/11/30 03:46:59;;;;;;;1.90;1.80;;;;;;;2.00;100.00;99758.31;4943213;28;20055;-86
2021/11/30 03:49:26;;;;;;;2.88;2.40;;;;;;;1.96;100.00;99753.97;4945282;28;20047;-86
2021/11/30 03:51:54;;;;;;;2.45;1.88;;;;;;;1.92;100.00;99754.78;4936374;28;20053;-85
2021/11/30 03:54:20;;;;;;;2.33;1.88;;;;;;;1.90;100.00;99744.41;4927494;28;20416;-86
2021/11/30 03:56:48;;;;;;;6.40;2.67;;;;;;;1.83;100.00;99727.13;4922787;28;20857;-86
2021/11/30 03:59:15;;;;;;;7.05;2.75;;;;;;;1.78;100.00;99729.66;4941524;28;20066;-85
2021/11/30 04:01:42;;;;;;;4.22;2.72;;;;;;;1.75;100.00;99718.47;4924411;28;20129;-85
2021/11/30 04:04:12;;;;;;;4.70;4.28;;;;;;;1.69;100.00;99711.47;4938357;28;21396;-84
2021/11/30 04:06:41;;;;;;;4.93;3.47;;;;;;;1.64;100.00;99711.44;4941595;28;20061;-85
2021/11/30 04:09:08;;;;;;;4.72;4.32;;;;;;;1.62;100.00;99695.06;4922594;28;20051;-85
2021/11/30 04:11:34;;;;;;;7.10;3.30;;;;;;;1.59;100.00;99691.59;4937529;28;20050;-85
2021/11/30 04:14:01;;;;;;;5.18;3.50;;;;;;;1.57;100.00;99659.75;4943783;28;21003;-85
2021/11/30 04:16:28;;;;;;;4.28;2.97;;;;;;;1.53;100.00;99669.16;4921354;28;20068;-85
2021/11/30 04:18:54;;;;;;;3.80;3.45;;;;;;;1.48;100.00;99653.63;4942063;28;20054;-85
2021/11/30 04:21:22;;;;;;;3.92;3.47;;;;;;;1.46;100.00;99644.13;4922925;28;20058;-85
2021/11/30 04:23:49;;;;;;;5.57;4.95;;;;;;;1.44;100.00;99632.97;4927461;28;20039;-85
2021/11/30 04:26:16;;;;;;;7.22;4.70;;;;;;;1.39;100.00;99629.47;4929481;28;20054;-85
2021/11/30 04:28:44;;;;;;;6.45;4.95;;;;;;;1.37;100.00;99628.56;4923421;28;20192;-85
2021/11/30 04:31:11;;;;;;;5.15;4.53;;;;;;;1.37;100.00;99621.72;4940642;28;20054;-85
2021/11/30 04:33:39;;;;;;;6.47;4.80;;;;;;;1.37;100.00;99619.13;4935289;28;20100;-85
2021/11/30 04:36:07;;;;;;;4.75;4.32;;;;;;;1.38;100.00;99607.94;4942620;28;20528;-85
2021/11/30 04:38:38;;;;;;;6.13;4.70;;;;;;;1.36;100.00;99599.34;4943020;28;20043;-85
2021/11/30 04:41:08;;;;;;;5.40;4.32;;;;;;;1.36;100.00;99604.50;4932363;28;20501;-85
2021/11/30 04:43:36;;;;;;;6.40;4.75;;;;;;;1.36;100.00;99601.91;4955803;28;20568;-85
2021/11/30 04:46:10;;;;;;;4.93;4.50;;;;;;;1.37;100.00;99588.19;4922621;28;20050;-85
2021/11/30 04:48:39;;;;;;;3.80;3.50;;;;;;;1.38;100.00;99579.59;4934778;28;20164;-85
2021/11/30 04:51:09;;;;;;;3.65;3.35;;;;;;;1.40;100.00;99566.72;4919152;28;20054;-85
2021/11/30 04:53:36;;;;;;;4.68;3.35;;;;;;;1.44;100.00;99553.00;4915684;28;20047;-82
2021/11/30 04:56:03;;;;;;;3.47;3.17;;;;;;;1.45;100.00;99550.44;4921884;28;20568;-85
2021/11/30 04:58:29;;;;;;;4.20;3.78;;;;;;;1.48;100.00;99547.88;4934912;28;20050;-85
2021/11/30 05:00:56;;;;;;;2.97;2.60;;;;;;;1.51;100.00;99553.94;4920195;28;20134;-85
2021/11/30 05:03:26;;;;;;;2.92;2.67;;;;;;;1.54;100.00;99538.47;4921272;28;20050;-85
2021/11/30 05:05:53;;;;;;;3.28;2.90;;;;;;;1.59;100.00;99519.63;4932476;28;20403;-85
2021/11/30 05:08:19;;;;;;;2.80;2.60;;;;;;;1.62;100.00;99513.66;4938906;28;20526;-85
2021/11/30 05:10:46;;;;;;;2.85;2.65;;;;;;;1.66;100.00;99512.81;4931594;28;20050;-85
2021/11/30 05:13:15;;;;;;;2.50;2.30;;;;;;;1.70;100.00;99493.06;4935059;28;20043;-86
2021/11/30 05:15:42;;;;;;;7.40;2.70;;;;;;;1.73;99.32;99501.69;4920516;28;20058;-86
2021/11/30 05:18:09;;;;;;;2.88;2.63;;;;;;;1.76;99.39;99487.94;4947386;28;20050;-85
2021/11/30 05:20:37;;;;;;;3.72;2.40;;;;;;;1.78;99.39;99476.78;4932826;28;20478;-85
2021/11/30 05:23:03;;;;;;;3.03;2.05;;;;;;;1.81;99.45;99465.63;4928160;28;20070;-85
2021/11/30 05:25:37;;;;;;;2.20;2.10;;;;;;;1.83;98.87;99457.91;4936411;28;20430;-84
2021/11/30 05:28:06;;;;;;;1.95;1.85;;;;;;;1.85;98.95;99451.03;4937947;28;20062;-85
2021/11/30 05:30:46;;;;;;;2.90;2.13;;;;;;;1.87;98.92;99441.59;4917625;28;20954;-85
2021/11/30 05:33:12;;;;;;;2.08;1.98;;;;;;;1.88;98.43;99446.75;4920387;28;20274;-85
2021/11/30 05:35:39;;;;;;;2.13;1.50;;;;;;;1.94;97.85;99440.75;4931744;28;22343;-85
2021/11/30 05:38:15;;;;;;;1.60;1.50;;;;;;;1.94;97.94;99433.03;4937549;28;20052;-85
2021/11/30 05:40:42;;;;;;;3.42;1.75;;;;;;;1.95;98.63;99434.75;4921000;28;20047;-85
2021/11/30 05:43:11;;;;;;;1.77;1.40;;;;;;;1.95;98.88;99443.34;4913905;28;20051;-85
2021/11/30 05:45:38;;;;;;;1.77;1.67;;;;;;;2.00;99.17;99416.72;4919627;28;20054;-85
2021/11/30 05:48:05;;;;;;;1.85;1.58;;;;;;;2.00;99.17;99425.31;4930009;28;20565;-85
2021/11/30 05:50:32;;;;;;;1.33;1.33;;;;;;;2.05;98.71;99417.63;4936700;28;20059;-85
2021/11/30 05:53:00;;;;;;;1.75;1.42;;;;;;;2.10;98.61;99410.75;4922092;28;20053;-86
2021/11/30 05:55:27;;;;;;;1.58;1.23;;;;;;;2.13;98.84;99408.19;4933227;28;20051;-85
2021/11/30 05:57:56;;;;;;;1.63;1.45;;;;;;;2.14;98.42;99405.63;4923793;28;20051;-85
2021/11/30 06:00:27;;;;;;;1.80;1.30;;;;;;;2.20;98.35;99404.78;4936219;28;20051;-85
2021/11/30 06:02:59;;;;;;;3.00;0.93;;;;;;;2.23;98.55;99336.78;4943441;28;20047;-85
2021/11/30 06:05:27;;;;;;;1.20;1.20;;;;;;;2.25;98.70;99408.25;4927157;28;20050;-85
2021/11/30 06:07:56;;;;;;;1.25;1.15;;;;;;;2.26;98.59;99394.47;4934174;28;20972;-85
2021/11/30 06:10:24;;;;;;;2.08;1.98;;;;;;;2.25;99.58;99346.25;4926895;28;20051;-85
2021/11/30 06:12:52;;;;;;;1.27;1.10;;;;;;;2.28;99.11;99387.63;4934937;28;20130;-86
2021/11/30 06:15:19;;;;;;;2.10;1.08;;;;;;;2.25;99.60;99379.84;4923693;28;20193;-86
2021/11/30 06:17:46;;;;;;;1.02;1.00;;;;;;;2.31;99.34;99386.75;4940824;28;20055;-86
2021/11/30 06:20:13;;;;;;;1.88;1.65;;;;;;;2.33;99.83;99379.03;4934881;28;20039;-85
2021/11/30 06:22:43;;;;;;;1.15;1.10;;;;;;;2.35;99.79;99370.41;4943055;28;20047;-85
2021/11/30 06:25:10;;;;;;;1.48;1.30;;;;;;;2.38;99.77;99373.00;4938550;28;20039;-85
2021/11/30 06:27:37;;;;;;;1.83;1.60;;;;;;;2.44;99.88;99388.53;4924737;28;20051;-85
2021/11/30 06:30:07;;;;;;;2.78;2.47;;;;;;;2.46;99.69;99378.19;4924246;28;20046;-85
2021/11/30 06:32:34;;;;;;;2.00;1.40;;;;;;;2.51;100.00;99383.38;4934063;28;20051;-86
2021/11/30 06:35:02;;;;;;;1.67;1.58;;;;;;;2.54;100.00;99371.31;4924592;28;20051;-85
2021/11/30 06:37:28;;;;;;;1.67;1.58;;;;;;;2.57;100.00;99367.88;4920151;28;20455;-85
2021/11/30 06:39:56;;;;;;;1.83;1.73;;;;;;;2.54;100.00;99365.31;4941700;28;22857;-86
2021/11/30 06:42:23;;;;;;;1.42;1.40;;;;;;;2.55;100.00;99354.97;4943139;28;20038;-86
2021/11/30 06:44:50;;;;;;;1.75;1.70;;;;;;;2.54;100.00;99342.06;4922744;28;20055;-86
2021/11/30 06:47:17;;;;;;;1.92;1.83;;;;;;;2.57;100.00;99357.56;4923895;28;20098;-86
2021/11/30 06:49:47;;;;;;;1.83;1.73;;;;;;;2.55;100.00;99362.72;4921530;28;20077;-86
2021/11/30 06:52:13;;;;;;;2.10;2.00;;;;;;;2.55;100.00;99348.97;4926249;28;20561;-86
2021/11/30 06:54:43;;;;;;;2.10;2.00;;;;;;;2.53;100.00;99351.53;4924804;28;20111;-86
2021/11/30 06:57:12;;;;;;;4.05;1.95;;;;;;;2.59;100.00;99358.44;4938431;28;20077;-86
2021/11/30 06:59:38;;;;;;;3.70;2.03;;;;;;;2.61;100.00;99369.66;4922780;28;20059;-86
2021/11/30 07:02:07;;;;;;;2.05;1.95;;;;;;;2.69;100.00;99365.34;4936212;28;20078;-84
2021/11/30 07:04:38;;;;;;;1.75;1.65;;;;;;;2.74;100.00;99350.72;4924916;28;20524;-86
2021/11/30 07:07:22;;;;;;;2.28;2.08;;;;;;;2.78;100.00;99356.75;4884142;28;20047;-86
2021/11/30 07:10:07;;;;;;;2.30;2.10;;;;;;;2.78;100.00;99346.44;4923342;28;20142;-86
2021/11/30 07:15:18;;;;;;;1.83;1.73;;;;;;;2.81;100.00;99323.16;4918756;28;20055;-85
2021/11/30 07:17:44;;;;;;;1.65;1.55;;;;;;;2.88;100.00;99348.16;4922688;28;20828;-86
2021/11/30 07:20:12;;;;;;;1.35;1.35;;;;;;;2.95;100.00;99344.72;4919788;28;21072;-86
2021/11/30 07:22:39;;;;;;;2.03;1.20;;;;;;;2.99;100.00;99345.59;4924169;28;20123;-86
2021/11/30 07:25:06;;;;;;;1.25;1.25;;;;;;;3.02;100.00;99344.72;4925889;28;20054;-86
2021/11/30 07:27:32;;;;;;;1.90;1.80;;;;;;;3.05;100.00;99362.81;4922039;28;20063;-86
2021/11/30 07:29:59;;;;;;;1.70;1.60;;;;;;;3.03;100.00;99333.53;4939683;28;20716;-86
2021/11/30 07:32:28;;;;;;;1.88;1.73;;;;;;;3.03;100.00;99343.88;4921087;28;20046;-86
2021/11/30 07:34:55;;;;;;;1.85;1.75;;;;;;;3.05;100.00;99360.22;4940353;28;20062;-85
2021/11/30 07:37:22;;;;;;;1.92;1.77;;;;;;;3.02;100.00;99339.56;4924888;28;20848;-86
2021/11/30 07:39:48;;;;;;;2.03;1.92;;;;;;;3.01;100.00;99345.56;4921291;28;20047;-87
2021/11/30 07:42:15;;;;;;;1.92;1.83;;;;;;;2.99;100.00;99322.31;4925684;28;20047;-84
2021/11/30 07:44:42;;;;;;;1.92;1.83;;;;;;;2.98;100.00;99331.78;4920688;28;20702;-86
2021/11/30 07:47:08;;;;;;;2.47;2.35;;;;;;;3.02;100.00;99326.63;4937336;28;20055;-86
2021/11/30 07:49:35;;;;;;;2.08;1.88;;;;;;;3.05;100.00;99335.25;4920609;28;20055;-86
2021/11/30 07:52:05;;;;;;;1.65;1.33;;;;;;;3.07;100.00;99307.66;4918410;28;21767;-85
2021/11/30 07:54:31;;;;;;;2.40;2.20;;;;;;;3.12;100.00;99312.84;4939520;28;20153;-85
2021/11/30 07:56:58;;;;;;;2.38;2.28;;;;;;;3.13;100.00;99315.41;4920101;28;20075;-86
2021/11/30 07:59:25;;;;;;;1.92;1.83;;;;;;;3.16;100.00;99321.47;4955658;28;20051;-86
2021/11/30 08:01:51;;;;;;;2.67;2.47;;;;;;;3.20;100.00;99330.94;4937565;28;20057;-86
2021/11/30 08:04:18;;;;;;;2.55;2.35;;;;;;;3.23;100.00;99303.31;4932887;28;20055;-86
2021/11/30 08:06:45;;;;;;;2.35;2.17;;;;;;;3.28;100.00;99305.94;4939841;28;20530;-86
2021/11/30 08:09:12;;;;;;;3.13;2.80;;;;;;;3.31;100.00;99296.44;4934679;28;20067;-86
2021/11/30 08:11:39;;;;;;;3.25;2.95;;;;;;;3.37;100.00;99310.22;4921575;28;20070;-86
2021/11/30 08:14:05;;;;;;;3.63;3.13;;;;;;;3.42;100.00;99301.59;4938656;28;20047;-86
2021/11/30 08:16:32;;;;;;;3.10;2.90;;;;;;;3.50;100.00;99288.66;4924222;28;20083;-85
2021/11/30 08:18:58;;;;;;;5.40;3.67;;;;;;;3.57;100.00;99292.97;4971657;28;20062;-86
2021/11/30 08:21:31;;;;;;;4.15;3.63;;;;;;;3.69;100.00;99286.88;4932628;28;20043;-86
2021/11/30 08:24:00;;;;;;;3.72;3.42;;;;;;;3.76;100.00;99291.16;4952680;28;20054;-86
2021/11/30 08:26:26;;;;;;;4.15;3.72;;;;;;;3.90;100.00;99285.94;4954851;28;20133;-85
2021/11/30 08:28:53;;;;;;;4.45;3.55;;;;;;;4.11;100.00;99299.66;4948016;28;20446;-86
2021/11/30 08:31:23;;;;;;;3.45;3.15;;;;;;;4.23;100.00;99290.97;4955161;28;21044;-86
2021/11/30 08:33:51;;;;;;;3.90;3.42;;;;;;;4.33;100.00;99286.59;4933873;28;20076;-86
2021/11/30 08:36:18;;;;;;;3.30;3.00;;;;;;;4.39;100.00;99271.88;4971565;28;20130;-86
2021/11/30 08:38:47;;;;;;;4.75;3.22;;;;;;;4.44;100.00;99285.66;4969937;28;20047;-86
2021/11/30 08:41:15;;;;;;;4.53;2.95;;;;;;;4.50;100.00;99282.19;4949817;28;20226;-86
2021/11/30 08:43:42;;;;;;;2.97;2.78;;;;;;;4.51;100.00;99268.38;4939775;28;20153;-86
2021/11/30 08:46:09;;;;;;;3.75;3.45;;;;;;;4.55;100.00;99290.78;4937841;28;20455;-86
2021/11/30 08:48:35;;;;;;;3.47;3.28;;;;;;;4.55;100.00;99283.03;4940481;28;20069;-86
2021/11/30 08:51:02;;;;;;;4.28;3.88;;;;;;;4.56;100.00;99289.94;4940036;28;20097;-84
2021/11/30 08:53:34;;;;;;;3.33;3.03;;;;;;;4.56;100.00;99286.47;4950379;28;20674;-86
2021/11/30 08:56:00;;;;;;;3.22;3.03;;;;;;;4.56;100.00;99287.34;4939573;28;20062;-86
2021/11/30 08:58:30;;;;;;;3.47;3.20;;;;;;;4.57;100.00;99289.03;4950057;28;20050;-85
2021/11/30 09:00:57;;;;;;;4.00;3.60;;;;;;;4.59;100.00;99291.66;4954183;28;20057;-85
2021/11/30 09:03:24;;;;;;;3.97;3.58;;;;;;;4.60;100.00;99303.72;4952369;28;20043;-85
2021/11/30 09:05:50;;;;;;;4.10;3.78;;;;;;;4.58;100.00;99297.69;4931764;28;20194;-85
2021/11/30 09:08:24;;;;;;;3.63;3.33;;;;;;;4.61;100.00;99285.56;4936977;28;20137;-85
2021/11/30 09:10:54;;;;;;;;;;;;;;;4.63;100.00;99294.19;4933233;28;20079;-85
2021/11/30 09:13:21;;;;;;;3.92;3.50;;;;;;;4.69;100.00;99279.47;4939662;28;19929;-85
2021/11/30 09:15:47;;;;;;;5.88;4.10;;;;;;;4.76;100.00;99283.75;4937374;28;20142;-85
2021/11/30 09:18:14;;;;;;;9.35;5.75;;;;;;;4.78;100.00;99284.56;4932151;28;20065;-85
2021/11/30 09:20:41;;;;;;;10.43;6.45;;;;;;;4.81;100.00;99287.16;4933775;28;20050;-85
2021/11/30 09:23:10;;;;;;;8.88;6.75;;;;;;;4.84;100.00;99291.44;4946000;28;20053;-85
2021/11/30 09:25:38;;;;;;;6.72;5.28;;;;;;;4.85;100.00;99304.41;4939594;28;20047;-85
2021/11/30 09:28:05;;;;;;;4.88;4.38;;;;;;;4.87;100.00;99309.59;4938528;28;20406;-85
2021/11/30 09:30:35;;;;;;;8.57;5.53;;;;;;;4.86;100.00;99307.84;4933023;28;20129;-85
2021/11/30 09:33:02;;;;;;;4.88;4.35;;;;;;;4.89;100.00;99316.47;4958554;28;21505;-85
2021/11/30 09:35:34;;;;;;;5.13;3.47;;;;;;;4.88;100.00;99309.56;4940284;28;20051;-85
2021/11/30 09:38:00;;;;;;;4.13;3.35;;;;;;;4.87;100.00;99313.03;4941076;28;20050;-85
2021/11/30 09:40:30;;;;;;;4.45;3.67;;;;;;;4.86;100.00;99313.91;4957352;28;20146;-85
2021/11/30 09:42:59;;;;;;;6.55;4.25;;;;;;;4.88;100.00;99312.16;4937888;28;20047;-85
2021/11/30 09:45:28;;;;;;;3.55;3.25;;;;;;;4.91;100.00;99303.50;4944899;28;20129;-83
2021/11/30 09:47:56;;;;;;;3.85;2.75;;;;;;;4.93;100.00;99302.63;4950731;28;20065;-86
2021/11/30 09:50:25;;;;;;;3.58;2.58;;;;;;;5.02;100.00;99300.81;4941474;28;20129;-84
2021/11/30 09:52:56;;;;;;;5.75;1.98;;;;;;;5.07;100.00;99288.66;4961100;28;20138;-83
2021/11/30 09:55:26;;;;;;;4.25;2.30;;;;;;;5.11;100.00;99299.03;4969384;28;20198;-84
2021/11/30 09:57:54;;;;;;;4.68;2.35;;;;;;;5.12;100.00;99292.97;4943645;28;20072;-84
2021/11/30 10:00:23;;;;;;;3.50;2.17;;;;;;;5.11;100.00;99291.25;4939731;28;20059;-85
2021/11/30 10:02:54;;;;;;;2.78;1.48;;;;;;;5.12;100.00;99281.72;4962767;28;20042;-84
2021/11/30 10:05:21;;;;;;;4.00;1.70;;;;;;;5.12;100.00;99282.59;4947926;28;20090;-84
2021/11/30 10:07:51;;;;;;;3.35;1.50;;;;;;;5.13;100.00;99275.66;4940187;28;20387;-85
2021/11/30 10:10:40;;;;;;;4.28;1.00;;;;;;;5.17;100.00;99282.53;4943107;28;21024;-85
2021/11/30 10:13:06;;;;;;;1.55;1.45;;;;;;;5.18;100.00;99280.81;4955443;28;20055;-84
2021/11/30 10:15:52;;;;;;;2.30;1.08;;;;;;;5.20;100.00;99276.44;4976072;28;20066;-85
2021/11/30 10:18:43;;;;;;;3.75;1.00;;;;;;;5.25;100.00;99279.88;4960449;28;20402;-85
2021/11/30 10:21:11;;;;;;;5.05;1.08;;;;;;;5.30;100.00;99272.91;4945644;28;20506;-85
2021/11/30 10:23:59;;;;;;;3.72;1.10;;;;;;;5.38;100.00;99283.22;4962061;28;20051;-85
2021/11/30 10:26:30;;;;;;;4.00;1.60;;;;;;;5.43;100.00;99278.84;4956394;28;20055;-85
2021/11/30 10:29:18;;;;;;;1.45;1.02;;;;;;;5.53;100.00;99271.78;4962495;28;20059;-85
2021/11/30 10:31:52;;;;;;;2.80;0.68;;;;;;;5.58;100.00;99276.09;4937600;28;20055;-83
2021/11/30 10:34:25;;;;;;;;;;;;;;;5.61;100.00;99276.03;4945180;28;20105;-82
2021/11/30 10:37:07;;;;;;;4.68;0.82;;;;;;;5.67;100.00;99276.84;4961616;28;19956;-84
2021/11/30 10:39:40;;;;;;;4.70;1.67;;;;;;;5.74;100.00;99278.50;4962568;28;20074;-85
2021/11/30 10:42:20;;;;;;;5.07;2.63;;;;;;;5.81;100.00;99269.75;4958528;28;20051;-85
2021/11/30 10:44:52;;;;;;;2.53;0.75;;;;;;;5.86;100.00;99265.38;4939528;28;20050;-84
2021/11/30 10:47:26;;;;;;;10.50;0.80;;;;;;;5.91;100.00;99271.38;4938731;28;20421;-83
2021/11/30 10:50:03;;;;;;;2.88;1.35;;;;;;;5.93;100.00;99264.44;4949370;28;20906;-85
2021/11/30 10:52:33;;;;;;;11.23;1.33;;;;;;;5.98;100.00;99269.59;4956596;28;20046;-83
2021/11/30 10:55:19;;;;;;;11.90;1.70;;;;;;;6.06;100.00;99270.38;4941084;28;20134;-84
2021/11/30 10:57:49;;;;;;;4.70;1.38;;;;;;;6.14;100.00;99280.66;4952429;28;20051;-83
2021/11/30 11:00:27;;;;;;;8.00;2.55;;;;;;;6.26;100.00;99267.50;4968032;28;20125;-83
2021/11/30 11:03:06;;;;;;;8.73;2.50;;;;;;;6.38;100.00;99274.25;4938032;28;20059;-85
2021/11/30 11:05:46;;;;;;;13.10;2.45;;;;;;;6.57;100.00;99273.97;4936099;28;20043;-84
2021/11/30 11:08:20;;;;;;;11.25;2.58;;;;;;;6.73;100.00;99269.44;4936698;28;20047;-85
2021/11/30 11:10:50;;;;;;;;;;;;;;;6.83;100.00;99272.72;4955755;28;20055;-83
2021/11/30 11:13:29;;;;;;;13.07;3.13;;;;;;;6.90;100.00;99276.97;4941833;28;19926;-86
2021/11/30 11:16:04;;;;;;;8.30;2.00;;;;;;;6.98;100.00;99279.44;4966815;28;20042;-82
2021/11/30 11:18:32;;;;;;;2.85;1.27;;;;;;;7.08;100.00;99268.00;4939301;28;20074;-83
2021/11/30 11:21:17;;;;;;;6.95;1.50;;;;;;;7.16;100.00;99266.13;4937288;28;20145;-85
2021/11/30 11:24:06;;;;;;;10.18;2.80;;;;;;;7.17;98.70;99256.56;4953039;28;20062;-85
2021/11/30 11:26:49;;;;;;;11.43;2.10;;;;;;;7.17;96.58;99262.63;4936234;28;20062;-86
2021/11/30 11:29:20;;;;;;;6.18;1.35;;;;;;;7.17;96.39;99277.38;4939209;28;20062;-85
2021/11/30 11:31:55;;;;;;;8.25;1.40;;;;;;;7.20;96.56;99275.59;4940395;28;20689;-85
2021/11/30 11:34:25;;;;;;;13.68;1.70;;;;;;;7.21;95.06;99281.63;4936139;28;20039;-85
2021/11/30 11:36:55;;;;;;;7.18;1.67;;;;;;;7.18;95.26;99274.75;4943384;28;20057;-85
2021/11/30 11:39:23;;;;;;;8.60;1.90;;;;;;;7.11;93.73;99299.16;4951210;28;20137;-85
2021/11/30 11:41:54;;;;;;;3.85;1.67;;;;;;;7.06;95.92;99281.00;4939655;28;20058;-85
2021/11/30 11:44:21;;;;;;;6.90;1.90;;;;;;;7.02;96.24;99300.16;4956381;28;20514;-85
2021/11/30 11:46:49;;;;;;;10.70;2.33;;;;;;;7.00;96.25;99291.53;4945051;28;20081;-85
2021/11/30 11:49:23;;;;;;;8.93;1.60;;;;;;;7.02;95.95;99299.31;4941759;28;20059;-85